Time;durP1;ratioP1;P1;durP2;ratioP2;P2;SDS_P1;SDS_P2;PMS_P1;PMS_P2;Temp;Humidity;BMP_temperature;BMP_pressure;BME280_temperature;BME280_humidity;BME280_pressure;Samples;Min_cycle;Max_cycle;Signal;HPM_P1;HPM_P2
2023/01/24 00:01:18;;;;;;;;;37.00;30.50;;;;;;;;5015343;28;46326;-75
2023/01/24 00:03:44;;;;;;;;;42.75;35.75;;;;;;;;5022268;28;45312;-75
2023/01/24 00:06:09;;;;;;;;;39.00;29.00;;;;;;;;5017014;28;45459;-75
2023/01/24 00:08:34;;;;;;;;;39.00;33.50;;;;;;;;5018098;28;45299;-75
2023/01/24 00:11:01;;;;;;;;;41.00;33.25;;;;;;;;5016372;28;45319;-75
2023/01/24 00:13:26;;;;;;;;;42.50;36.00;;;;;;;;5020345;28;45463;-76
2023/01/24 00:16:00;;;;;;;;;57.25;38.00;;;;;;;;5017059;28;45405;-74
2023/01/24 00:18:25;;;;;;;;;38.25;31.00;;;;;;;;5016888;28;47674;-75
2023/01/24 00:20:50;;;;;;;;;42.50;35.50;;;;;;;;5006247;28;45297;-75
2023/01/24 00:23:16;;;;;;;;;39.25;36.00;;;;;;;;5013073;28;45339;-75
2023/01/24 00:25:41;;;;;;;;;43.25;35.75;;;;;;;;5012705;28;45257;-75
2023/01/24 00:28:06;;;;;;;;;44.25;34.75;;;;;;;;5016193;28;45229;-74
2023/01/24 00:30:31;;;;;;;;;42.25;31.50;;;;;;;;5017463;28;45372;-75
2023/01/24 00:32:56;;;;;;;;;28.25;25.75;;;;;;;;5014386;28;45502;-75
2023/01/24 00:35:22;;;;;;;;;44.75;33.25;;;;;;;;5015339;28;45584;-75
2023/01/24 00:37:47;;;;;;;;;42.75;33.75;;;;;;;;5012310;28;46519;-75
2023/01/24 00:40:12;;;;;;;;;53.00;38.00;;;;;;;;5006984;28;45249;-75
2023/01/24 00:42:37;;;;;;;;;49.25;38.50;;;;;;;;5014082;28;45309;-75
2023/01/24 00:45:03;;;;;;;;;42.75;34.00;;;;;;;;5014412;28;45220;-75
2023/01/24 00:47:28;;;;;;;;;50.25;38.50;;;;;;;;5016679;28;45271;-75
2023/01/24 00:49:53;;;;;;;;;37.00;26.50;;;;;;;;5006804;28;45233;-75
2023/01/24 00:52:18;;;;;;;;;30.75;26.25;;;;;;;;5015882;28;45289;-75
2023/01/24 00:54:43;;;;;;;;;53.25;39.25;;;;;;;;5017260;28;45149;-76
2023/01/24 00:57:09;;;;;;;;;46.25;35.50;;;;;;;;5013502;28;45298;-76
2023/01/24 00:59:34;;;;;;;;;38.25;31.00;;;;;;;;5016963;28;45128;-75
2023/01/24 01:01:59;;;;;;;;;43.75;37.75;;;;;;;;5014204;28;45153;-74
2023/01/24 01:04:24;;;;;;;;;38.50;31.00;;;;;;;;5017358;28;45264;-74
2023/01/24 01:06:49;;;;;;;;;49.75;37.75;;;;;;;;5013363;28;45707;-75
2023/01/24 01:09:15;;;;;;;;;47.25;35.25;;;;;;;;5017113;28;45351;-74
2023/01/24 01:11:41;;;;;;;;;45.50;39.50;;;;;;;;5013133;28;45213;-74
2023/01/24 01:14:06;;;;;;;;;40.25;34.25;;;;;;;;5017008;28;45229;-74
2023/01/24 01:16:32;;;;;;;;;48.50;39.00;;;;;;;;5016655;28;46048;-74
2023/01/24 01:18:58;;;;;;;;;44.75;36.50;;;;;;;;5014303;28;45318;-74
2023/01/24 01:21:23;;;;;;;;;49.00;39.75;;;;;;;;5006770;28;45292;-74
2023/01/24 01:23:48;;;;;;;;;55.00;40.50;;;;;;;;5018060;28;45355;-74
2023/01/24 01:26:18;;;;;;;;;47.00;39.00;;;;;;;;5015339;28;46918;-74
2023/01/24 01:28:43;;;;;;;;;50.75;40.25;;;;;;;;5007974;28;45572;-74
2023/01/24 01:31:08;;;;;;;;;45.75;34.00;;;;;;;;5014369;28;45426;-74
2023/01/24 01:33:33;;;;;;;;;53.75;42.00;;;;;;;;5007808;28;45317;-74
2023/01/24 01:35:59;;;;;;;;;44.50;35.00;;;;;;;;5015178;28;45363;-74
2023/01/24 01:38:25;;;;;;;;;41.75;34.00;;;;;;;;5015667;28;45421;-74
2023/01/24 01:40:50;;;;;;;;;54.75;39.75;;;;;;;;5015843;28;45505;-74
2023/01/24 01:43:17;;;;;;;;;50.00;35.75;;;;;;;;5016848;28;45379;-74
2023/01/24 01:45:46;;;;;;;;;46.75;36.25;;;;;;;;5015412;28;47414;-75
2023/01/24 01:48:15;;;;;;;;;39.75;33.00;;;;;;;;5016588;28;45310;-74
2023/01/24 01:50:45;;;;;;;;;48.00;40.00;;;;;;;;5016885;28;45510;-74
2023/01/24 01:53:11;;;;;;;;;52.25;42.25;;;;;;;;5013298;28;45588;-74
2023/01/24 01:55:38;;;;;;;;;30.50;19.50;;;;;;;;5017581;28;46057;-74
2023/01/24 01:58:04;;;;;;;;;46.75;41.50;;;;;;;;5014093;28;45411;-74
2023/01/24 02:00:29;;;;;;;;;45.25;35.50;;;;;;;;5017777;28;45450;-74
2023/01/24 02:03:37;;;;;;;;;45.50;33.25;;;;;;;;5011321;28;45459;-74
2023/01/24 02:05:42;;;;;;;;;50.75;36.50;;;;;;;;5016252;28;45679;-74
2023/01/24 02:08:11;;;;;;;;;34.25;24.00;;;;;;;;5013353;28;45468;-74
2023/01/24 02:13:21;;;;;;;;;48.00;39.50;;;;;;;;5015682;28;45126;-75
2023/01/24 02:16:04;;;;;;;;;46.25;33.75;;;;;;;;5017968;28;45407;-74
2023/01/24 02:18:37;;;;;;;;;50.00;38.25;;;;;;;;5017353;28;45552;-74
2023/01/24 02:21:10;;;;;;;;;46.25;38.75;;;;;;;;5016938;28;44840;-74
2023/01/24 02:23:44;;;;;;;;;48.75;40.75;;;;;;;;5012533;28;45600;-74
2023/01/24 02:26:11;;;;;;;;;47.00;36.50;;;;;;;;5012825;28;45471;-74
2023/01/24 02:28:37;;;;;;;;;43.25;35.50;;;;;;;;5009036;28;45281;-74
2023/01/24 02:31:03;;;;;;;;;49.25;37.50;;;;;;;;5004507;28;45506;-74
2023/01/24 02:33:28;;;;;;;;;37.75;30.50;;;;;;;;5008180;28;45763;-74
2023/01/24 02:36:06;;;;;;;;;39.50;36.75;;;;;;;;5011934;28;45249;-74
2023/01/24 02:38:31;;;;;;;;;38.00;30.00;;;;;;;;5010879;28;45206;-74
2023/01/24 02:41:06;;;;;;;;;44.75;37.25;;;;;;;;5014058;28;45399;-74
2023/01/24 02:43:31;;;;;;;;;37.75;31.25;;;;;;;;5017106;28;45505;-75
2023/01/24 02:45:56;;;;;;;;;31.00;26.25;;;;;;;;5013157;28;46603;-74
2023/01/24 02:48:21;;;;;;;;;48.75;39.50;;;;;;;;5009419;28;45523;-74
2023/01/24 02:53:31;;;;;;;;;50.50;37.75;;;;;;;;5015005;28;45371;-74
2023/01/24 02:58:43;;;;;;;;;42.25;32.00;;;;;;;;5011451;28;45438;-74
2023/01/24 03:01:09;;;;;;;;;43.50;34.00;;;;;;;;5008937;28;45500;-72
2023/01/24 03:03:34;;;;;;;;;19.75;5.75;;;;;;;;5012955;28;46129;-75
2023/01/24 03:06:00;;;;;;;;;36.50;28.75;;;;;;;;5014759;28;48404;-76
2023/01/24 03:08:26;;;;;;;;;37.50;33.00;;;;;;;;5013772;28;44784;-75
2023/01/24 03:10:52;;;;;;;;;43.75;37.75;;;;;;;;5014660;28;45348;-75
2023/01/24 03:35:09;;;;;;;;;44.00;38.50;;;;;;;;5016758;28;45401;-76
2023/01/24 03:40:18;;;;;;;;;43.25;31.25;;;;;;;;5017726;28;45364;-76
2023/01/24 03:42:47;;;;;;;;;46.50;34.75;;;;;;;;5009587;28;45287;-75
2023/01/24 03:45:20;;;;;;;;;40.00;34.75;;;;;;;;4997056;28;47103;-73
2023/01/24 03:47:54;;;;;;;;;44.25;34.00;;;;;;;;5009758;28;45467;-74
2023/01/24 03:53:04;;;;;;;;;55.75;38.00;;;;;;;;5010557;28;45320;-74
2023/01/24 03:55:29;;;;;;;;;43.00;36.00;;;;;;;;5010923;28;45511;-77
2023/01/24 03:57:55;;;;;;;;;34.25;32.50;;;;;;;;5009332;28;45931;-76
2023/01/24 04:00:20;;;;;;;;;46.50;33.75;;;;;;;;5017343;28;45372;-75
2023/01/24 04:02:45;;;;;;;;;45.25;35.75;;;;;;;;5010732;28;45209;-76
2023/01/24 04:05:13;;;;;;;;;44.50;34.75;;;;;;;;5016423;28;45443;-75
2023/01/24 04:07:38;;;;;;;;;43.50;36.25;;;;;;;;5010826;28;45986;-76
2023/01/24 04:10:04;;;;;;;;;43.75;35.00;;;;;;;;5015644;28;45379;-76
2023/01/24 04:12:30;;;;;;;;;36.50;33.50;;;;;;;;5009222;28;45347;-75
2023/01/24 04:14:55;;;;;;;;;37.50;32.00;;;;;;;;5014864;28;45639;-76
2023/01/24 04:17:20;;;;;;;;;53.75;40.25;;;;;;;;5015815;28;45441;-76
2023/01/24 04:19:46;;;;;;;;;48.00;38.50;;;;;;;;5012621;28;45595;-76
2023/01/24 04:22:11;;;;;;;;;43.00;33.50;;;;;;;;5015199;28;45411;-75
2023/01/24 04:24:37;;;;;;;;;49.00;37.50;;;;;;;;5014925;28;45448;-75
2023/01/24 04:27:02;;;;;;;;;56.50;41.00;;;;;;;;5017831;28;45727;-75
2023/01/24 04:29:27;;;;;;;;;50.00;36.25;;;;;;;;5010785;28;45476;-75
2023/01/24 04:31:52;;;;;;;;;51.25;40.25;;;;;;;;5009329;28;45395;-75
2023/01/24 04:34:17;;;;;;;;;42.75;36.75;;;;;;;;5012339;28;45371;-76
2023/01/24 04:36:43;;;;;;;;;49.75;36.00;;;;;;;;5015420;28;47072;-75
2023/01/24 04:39:08;;;;;;;;;40.75;33.50;;;;;;;;5020332;28;45256;-75
2023/01/24 04:41:33;;;;;;;;;42.75;34.75;;;;;;;;5012276;28;45382;-76
2023/01/24 04:43:58;;;;;;;;;51.75;41.75;;;;;;;;5013422;28;45299;-75
2023/01/24 04:46:23;;;;;;;;;51.00;40.50;;;;;;;;5016405;28;46745;-75
2023/01/24 04:48:49;;;;;;;;;56.75;41.25;;;;;;;;5018762;28;45441;-75
2023/01/24 04:51:14;;;;;;;;;43.25;38.75;;;;;;;;5014847;28;45541;-75
2023/01/24 04:53:39;;;;;;;;;45.50;31.25;;;;;;;;5014666;28;45350;-75
2023/01/24 04:56:05;;;;;;;;;44.50;39.75;;;;;;;;5017296;28;45413;-75
2023/01/24 04:58:31;;;;;;;;;54.50;42.00;;;;;;;;5015393;28;45284;-74
2023/01/24 05:00:56;;;;;;;;;52.25;40.00;;;;;;;;5013782;28;45412;-74
2023/01/24 05:03:22;;;;;;;;;47.75;38.25;;;;;;;;5015541;28;45654;-74
2023/01/24 05:05:50;;;;;;;;;55.50;44.25;;;;;;;;5017142;28;45294;-74
2023/01/24 05:08:15;;;;;;;;;50.75;38.00;;;;;;;;5015136;28;45208;-73
2023/01/24 05:10:41;;;;;;;;;45.75;33.00;;;;;;;;5018095;28;45174;-74
2023/01/24 05:13:06;;;;;;;;;46.75;40.00;;;;;;;;5013195;28;45530;-73
2023/01/24 05:15:31;;;;;;;;;52.50;43.50;;;;;;;;5012432;28;48091;-75
2023/01/24 05:17:56;;;;;;;;;44.50;37.50;;;;;;;;5013477;28;45344;-75
2023/01/24 05:20:22;;;;;;;;;52.75;40.00;;;;;;;;5010412;28;45809;-76
2023/01/24 05:22:48;;;;;;;;;48.75;39.50;;;;;;;;5014725;28;45347;-75
2023/01/24 05:25:17;;;;;;;;;58.00;43.50;;;;;;;;5019159;28;45339;-73
2023/01/24 05:27:42;;;;;;;;;42.25;36.25;;;;;;;;5008350;28;45394;-75
2023/01/24 05:30:08;;;;;;;;;43.00;37.50;;;;;;;;5010983;28;46247;-74
2023/01/24 05:32:33;;;;;;;;;58.33;46.33;;;;;;;;5012250;28;45479;-74
2023/01/24 05:34:58;;;;;;;;;53.50;43.50;;;;;;;;5016785;28;45497;-74
2023/01/24 05:37:24;;;;;;;;;60.25;42.00;;;;;;;;5011758;28;45587;-74
2023/01/24 05:39:49;;;;;;;;;49.25;41.25;;;;;;;;5018847;28;45544;-73
2023/01/24 05:42:14;;;;;;;;;50.50;39.75;;;;;;;;5012052;28;46034;-75
2023/01/24 05:44:39;;;;;;;;;51.50;43.00;;;;;;;;5016867;28;45418;-73
2023/01/24 05:47:05;;;;;;;;;57.25;40.75;;;;;;;;5013250;28;45582;-74
2023/01/24 05:49:30;;;;;;;;;53.25;40.50;;;;;;;;5017975;28;45603;-74
2023/01/24 05:51:55;;;;;;;;;43.00;38.75;;;;;;;;5006146;28;45444;-74
2023/01/24 05:54:20;;;;;;;;;40.25;33.00;;;;;;;;5013807;28;46324;-74
2023/01/24 05:56:45;;;;;;;;;54.00;43.33;;;;;;;;5012482;28;45548;-74
2023/01/24 05:59:13;;;;;;;;;53.00;44.00;;;;;;;;5006645;28;45371;-75
2023/01/24 06:01:38;;;;;;;;;60.75;48.25;;;;;;;;5012181;28;45450;-74
2023/01/24 06:04:03;;;;;;;;;71.50;49.25;;;;;;;;5010942;28;45364;-74
2023/01/24 06:06:29;;;;;;;;;61.00;44.25;;;;;;;;5014684;28;45533;-75
2023/01/24 06:08:54;;;;;;;;;65.75;47.25;;;;;;;;5011579;28;45316;-75
2023/01/24 06:11:20;;;;;;;;;57.75;44.00;;;;;;;;5014464;28;46727;-75
2023/01/24 06:13:45;;;;;;;;;62.33;45.00;;;;;;;;5016782;28;47092;-75
2023/01/24 06:16:15;;;;;;;;;60.75;47.75;;;;;;;;5015330;28;45443;-75
2023/01/24 06:18:41;;;;;;;;;63.33;50.00;;;;;;;;5015211;28;45439;-74
2023/01/24 06:21:26;;;;;;;;;56.25;44.00;;;;;;;;5014488;28;45591;-75
2023/01/24 06:23:52;;;;;;;;;63.33;48.00;;;;;;;;5012926;28;46996;-75
2023/01/24 06:26:17;;;;;;;;;58.25;46.50;;;;;;;;5021557;28;45249;-75
2023/01/24 06:28:42;;;;;;;;;65.00;45.75;;;;;;;;5002610;28;45426;-75
2023/01/24 06:31:16;;;;;;;;;62.25;42.50;;;;;;;;5014807;28;45528;-75
2023/01/24 06:33:44;;;;;;;;;65.00;48.75;;;;;;;;5008339;28;46337;-74
2023/01/24 06:36:14;;;;;;;;;68.25;48.50;;;;;;;;5012288;28;45404;-75
2023/01/24 06:38:40;;;;;;;;;57.75;44.00;;;;;;;;5008152;28;45281;-77
2023/01/24 06:41:13;;;;;;;;;55.00;43.00;;;;;;;;5014840;28;45170;-77
2023/01/24 06:43:38;;;;;;;;;59.00;43.25;;;;;;;;5009369;28;46770;-75
2023/01/24 06:46:03;;;;;;;;;53.50;43.00;;;;;;;;5015739;28;45434;-75
2023/01/24 06:48:28;;;;;;;;;60.33;44.00;;;;;;;;5014513;28;45399;-75
2023/01/24 06:50:54;;;;;;;;;67.75;48.25;;;;;;;;5025006;28;45478;-74
2023/01/24 06:53:19;;;;;;;;;62.00;46.75;;;;;;;;5005356;28;46059;-75
2023/01/24 06:55:45;;;;;;;;;62.00;51.33;;;;;;;;5009370;28;45421;-74
2023/01/24 06:58:10;;;;;;;;;68.33;47.33;;;;;;;;5011777;28;45183;-75
2023/01/24 07:00:35;;;;;;;;;66.00;51.00;;;;;;;;5015565;28;45463;-75
2023/01/24 07:03:02;;;;;;;;;65.00;48.33;;;;;;;;5010884;28;45995;-75
2023/01/24 07:05:28;;;;;;;;;59.75;44.00;;;;;;;;5010419;28;45582;-75
2023/01/24 07:07:53;;;;;;;;;62.67;43.33;;;;;;;;5014084;28;45511;-76
2023/01/24 07:10:18;;;;;;;;;62.50;43.75;;;;;;;;5010841;28;46263;-75
2023/01/24 07:12:44;;;;;;;;;57.67;47.00;;;;;;;;5013252;28;45904;-75
2023/01/24 07:15:09;;;;;;;;;66.00;47.33;;;;;;;;5017143;28;45311;-75
2023/01/24 07:17:34;;;;;;;;;64.33;49.67;;;;;;;;5010523;28;45569;-75
2023/01/24 07:20:00;;;;;;;;;68.00;50.00;;;;;;;;5015700;28;45379;-74
2023/01/24 07:22:25;;;;;;;;;67.00;50.33;;;;;;;;5002716;28;45413;-76
2023/01/24 07:24:50;;;;;;;;;62.00;43.33;;;;;;;;5016969;28;45478;-76
2023/01/24 07:27:16;;;;;;;;;70.00;52.00;;;;;;;;5007880;28;45426;-76
2023/01/24 07:29:41;;;;;;;;;67.33;49.00;;;;;;;;5013479;28;45630;-75
2023/01/24 07:32:08;;;;;;;;;70.33;50.67;;;;;;;;5012708;28;45377;-75
2023/01/24 07:34:33;;;;;;;;;71.33;53.33;;;;;;;;5016995;28;45451;-75
2023/01/24 07:36:59;;;;;;;;;64.50;48.50;;;;;;;;5011702;28;45356;-75
2023/01/24 07:39:26;;;;;;;;;58.75;44.75;;;;;;;;5016443;28;45391;-75
2023/01/24 07:41:51;;;;;;;;;61.00;46.25;;;;;;;;5009236;28;45481;-75
2023/01/24 07:44:17;;;;;;;;;50.50;39.75;;;;;;;;5016559;28;45341;-75
2023/01/24 07:46:42;;;;;;;;;60.33;47.33;;;;;;;;5010547;28;45259;-75
2023/01/24 07:49:07;;;;;;;;;63.67;44.00;;;;;;;;5016530;28;47253;-74
2023/01/24 07:51:32;;;;;;;;;67.67;47.33;;;;;;;;5011869;28;45310;-75
2023/01/24 07:53:57;;;;;;;;;68.33;48.00;;;;;;;;5003658;28;45402;-76
2023/01/24 07:56:23;;;;;;;;;65.00;49.67;;;;;;;;5016258;28;45633;-75
2023/01/24 07:58:48;;;;;;;;;72.75;52.25;;;;;;;;5006077;28;45558;-75
2023/01/24 08:01:20;;;;;;;;;54.00;43.75;;;;;;;;5017054;28;45238;-75
2023/01/24 08:03:45;;;;;;;;;60.25;43.50;;;;;;;;5009945;28;45294;-75
2023/01/24 08:06:10;;;;;;;;;64.00;47.75;;;;;;;;5011165;28;45868;-76
2023/01/24 08:08:35;;;;;;;;;63.50;43.75;;;;;;;;5010235;28;45309;-75
2023/01/24 08:11:01;;;;;;;;;59.67;49.00;;;;;;;;5016152;28;46238;-75
2023/01/24 08:13:26;;;;;;;;;52.00;45.00;;;;;;;;5017950;28;45284;-75
2023/01/24 08:15:51;;;;;;;;;46.67;40.67;;;;;;;;5018759;28;45317;-75
2023/01/24 08:18:17;;;;;;;;;62.25;48.00;;;;;;;;5012457;28;45331;-76
2023/01/24 08:20:42;;;;;;;;;65.00;46.75;;;;;;;;5020381;28;45499;-75
2023/01/24 08:23:08;;;;;;;;;54.25;43.75;;;;;;;;5001873;28;45440;-75
2023/01/24 08:25:33;;;;;;;;;62.00;46.50;;;;;;;;5013121;28;45312;-75
2023/01/24 08:27:59;;;;;;;;;63.50;49.75;;;;;;;;5005616;28;45905;-75
2023/01/24 08:30:24;;;;;;;;;61.75;46.75;;;;;;;;5020798;28;46370;-75
2023/01/24 08:32:58;;;;;;;;;60.75;44.00;;;;;;;;5017089;28;45435;-75
2023/01/24 08:35:23;;;;;;;;;66.67;48.00;;;;;;;;5014177;28;45340;-75
2023/01/24 08:37:48;;;;;;;;;55.75;45.50;;;;;;;;5006564;28;45414;-74
2023/01/24 08:40:13;;;;;;;;;46.50;39.25;;;;;;;;5020249;28;46637;-74
2023/01/24 08:42:38;;;;;;;;;59.75;47.25;;;;;;;;5011959;28;45452;-75
2023/01/24 08:45:04;;;;;;;;;61.75;48.00;;;;;;;;5014592;28;45315;-75
2023/01/24 08:47:29;;;;;;;;;60.75;43.75;;;;;;;;5012848;28;45566;-75
2023/01/24 08:49:54;;;;;;;;;60.75;48.00;;;;;;;;5007781;28;45305;-74
2023/01/24 08:52:19;;;;;;;;;64.33;49.67;;;;;;;;5012956;28;45389;-75
2023/01/24 08:54:45;;;;;;;;;65.50;50.75;;;;;;;;5019769;28;45564;-75
2023/01/24 08:57:10;;;;;;;;;70.00;51.67;;;;;;;;5010132;28;45530;-75
2023/01/24 08:59:35;;;;;;;;;74.33;52.00;;;;;;;;5009545;28;46047;-75
2023/01/24 09:02:00;;;;;;;;;68.33;52.00;;;;;;;;5014480;28;45366;-74
2023/01/24 09:04:28;;;;;;;;;65.00;48.67;;;;;;;;5014919;28;45426;-74
2023/01/24 09:06:54;;;;;;;;;62.25;48.25;;;;;;;;5007158;28;45471;-74
2023/01/24 09:09:19;;;;;;;;;61.00;45.00;;;;;;;;5011609;28;45363;-74
2023/01/24 09:11:45;;;;;;;;;72.75;51.75;;;;;;;;5015952;28;45344;-76
2023/01/24 09:14:10;;;;;;;;;61.00;46.75;;;;;;;;5019399;28;45618;-75
2023/01/24 09:16:35;;;;;;;;;63.50;47.25;;;;;;;;5014750;28;46313;-75
2023/01/24 09:19:00;;;;;;;;;56.50;43.00;;;;;;;;5022124;28;45414;-75
2023/01/24 09:21:25;;;;;;;;;62.50;51.00;;;;;;;;5007776;28;45214;-75
2023/01/24 09:23:52;;;;;;;;;59.75;46.50;;;;;;;;5017618;28;45532;-74
2023/01/24 09:26:18;;;;;;;;;57.50;40.25;;;;;;;;5014959;28;45328;-75
2023/01/24 09:28:43;;;;;;;;;59.25;43.25;;;;;;;;5006483;28;45631;-75
2023/01/24 09:31:09;;;;;;;;;62.50;46.25;;;;;;;;5015360;28;45783;-74
2023/01/24 09:33:34;;;;;;;;;66.00;47.50;;;;;;;;5007787;28;45465;-74
2023/01/24 09:36:01;;;;;;;;;67.25;46.75;;;;;;;;5016083;28;45566;-75
2023/01/24 09:38:28;;;;;;;;;54.50;44.75;;;;;;;;5009662;28;46404;-75
2023/01/24 09:40:56;;;;;;;;;62.75;47.50;;;;;;;;5017366;28;45343;-75
2023/01/24 09:43:34;;;;;;;;;50.25;42.50;;;;;;;;5008236;28;45647;-75
2023/01/24 09:46:18;;;;;;;;;56.50;42.00;;;;;;;;5014353;28;44836;-74
2023/01/24 09:48:45;;;;;;;;;56.00;44.00;;;;;;;;5008301;28;46335;-74
2023/01/24 09:51:13;;;;;;;;;59.50;41.00;;;;;;;;5012065;28;45347;-75
2023/01/24 09:53:42;;;;;;;;;59.50;45.50;;;;;;;;5005855;28;45316;-75
2023/01/24 09:56:12;;;;;;;;;64.25;49.75;;;;;;;;5015072;28;45573;-74
2023/01/24 09:58:43;;;;;;;;;41.75;38.75;;;;;;;;5006082;28;45596;-74
2023/01/24 10:01:10;;;;;;;;;67.50;46.75;;;;;;;;5016422;28;45469;-74
2023/01/24 10:03:36;;;;;;;;;61.50;45.75;;;;;;;;5008789;28;45265;-73
2023/01/24 10:06:23;;;;;;;;;62.00;45.25;;;;;;;;5010222;28;45384;-74
2023/01/24 10:08:48;;;;;;;;;63.50;46.50;;;;;;;;5009319;28;45608;-74
2023/01/24 10:11:39;;;;;;;;;59.50;46.25;;;;;;;;5016517;28;45224;-75
2023/01/24 10:14:22;;;;;;;;;56.50;46.50;;;;;;;;5018389;28;45276;-74
2023/01/24 10:16:51;;;;;;;;;60.75;46.00;;;;;;;;5006745;28;45380;-74
2023/01/24 10:19:17;;;;;;;;;61.25;46.00;;;;;;;;5022473;28;47346;-74
2023/01/24 10:21:53;;;;;;;;;61.25;46.50;;;;;;;;5005819;28;45374;-74
2023/01/24 10:24:20;;;;;;;;;65.75;48.50;;;;;;;;5011295;28;45312;-74
2023/01/24 10:26:50;;;;;;;;;40.25;33.50;;;;;;;;5012925;28;44769;-74
2023/01/24 10:29:15;;;;;;;;;59.75;45.25;;;;;;;;5012392;28;45275;-74
2023/01/24 10:31:41;;;;;;;;;62.50;46.75;;;;;;;;5014899;28;45435;-74
2023/01/24 10:34:27;;;;;;;;;66.00;45.50;;;;;;;;5007672;28;45416;-74
2023/01/24 10:36:59;;;;;;;;;63.75;46.00;;;;;;;;5004579;28;45838;-74
2023/01/24 10:39:24;;;;;;;;;55.50;44.00;;;;;;;;5012628;28;45402;-74
2023/01/24 10:41:49;;;;;;;;;66.50;47.25;;;;;;;;5010262;28;45462;-74
2023/01/24 10:44:17;;;;;;;;;55.75;42.75;;;;;;;;5004897;28;45382;-74
2023/01/24 10:47:00;;;;;;;;;64.75;44.50;;;;;;;;5000722;28;45354;-75
2023/01/24 10:49:27;;;;;;;;;62.75;46.50;;;;;;;;5002800;28;45412;-75
2023/01/24 10:52:11;;;;;;;;;63.25;43.75;;;;;;;;5014440;28;45371;-74
2023/01/24 10:54:42;;;;;;;;;48.75;37.25;;;;;;;;5006833;28;45317;-74
2023/01/24 10:57:16;;;;;;;;;68.00;49.25;;;;;;;;5007142;28;45293;-74
2023/01/24 10:59:41;;;;;;;;;55.00;43.00;;;;;;;;5016183;28;45384;-75
2023/01/24 11:02:16;;;;;;;;;63.25;45.50;;;;;;;;5011762;28;45307;-75
2023/01/24 11:04:41;;;;;;;;;60.00;42.50;;;;;;;;5013740;28;45314;-74
2023/01/24 11:07:25;;;;;;;;;63.25;47.25;;;;;;;;5013052;28;45531;-74
2023/01/24 11:09:50;;;;;;;;;59.00;45.00;;;;;;;;5010196;28;45453;-75
2023/01/24 11:12:16;;;;;;;;;58.50;46.75;;;;;;;;5011816;28;45696;-74
2023/01/24 11:14:47;;;;;;;;;53.25;43.50;;;;;;;;5018783;28;45382;-74
2023/01/24 11:17:29;;;;;;;;;61.00;45.50;;;;;;;;5011647;28;45487;-74
2023/01/24 11:19:58;;;;;;;;;60.75;47.00;;;;;;;;5018370;28;47118;-74
2023/01/24 11:22:24;;;;;;;;;61.00;44.00;;;;;;;;5000601;28;45409;-74
2023/01/24 11:24:50;;;;;;;;;59.50;46.25;;;;;;;;5013155;28;45565;-73
2023/01/24 11:27:16;;;;;;;;;60.00;45.25;;;;;;;;5015263;28;45442;-73
2023/01/24 11:29:42;;;;;;;;;52.25;43.50;;;;;;;;5020416;28;45221;-74
2023/01/24 11:32:13;;;;;;;;;60.75;46.00;;;;;;;;5015859;28;45264;-75
2023/01/24 11:34:48;;;;;;;;;50.75;41.00;;;;;;;;5016887;28;45264;-74
2023/01/24 11:37:17;;;;;;;;;56.25;43.00;;;;;;;;5012527;28;45364;-74
2023/01/24 11:39:57;;;;;;;;;52.75;41.75;;;;;;;;5007643;28;47780;-74
2023/01/24 11:42:22;;;;;;;;;61.25;49.00;;;;;;;;5019350;28;45356;-73
2023/01/24 11:44:58;;;;;;;;;57.25;43.00;;;;;;;;5021895;28;45221;-75
2023/01/24 11:47:27;;;;;;;;;64.25;48.75;;;;;;;;5007329;28;45560;-73
2023/01/24 11:49:52;;;;;;;;;55.50;42.00;;;;;;;;5014672;28;45334;-75
2023/01/24 11:52:33;;;;;;;;;51.50;41.50;;;;;;;;5015931;28;45329;-75
2023/01/24 11:55:10;;;;;;;;;42.75;37.50;;;;;;;;5020164;28;45440;-75
2023/01/24 11:57:42;;;;;;;;;58.75;44.00;;;;;;;;5018979;28;47223;-75
2023/01/24 12:00:22;;;;;;;;;53.75;39.75;;;;;;;;5012479;28;45457;-74
2023/01/24 12:03:20;;;;;;;;;51.25;41.00;;;;;;;;5018752;28;45544;-75
2023/01/24 12:05:56;;;;;;;;;57.75;43.25;;;;;;;;5001480;28;44867;-75
2023/01/24 12:08:27;;;;;;;;;52.75;43.00;;;;;;;;5012299;28;45509;-75
2023/01/24 12:11:01;;;;;;;;;50.50;42.00;;;;;;;;5018157;28;45371;-75
2023/01/24 12:13:34;;;;;;;;;42.50;37.25;;;;;;;;5015331;28;45201;-75
2023/01/24 12:16:02;;;;;;;;;57.00;40.50;;;;;;;;5019227;28;45421;-75
2023/01/24 12:18:39;;;;;;;;;50.75;36.50;;;;;;;;5012235;28;45703;-75
2023/01/24 12:21:11;;;;;;;;;69.50;53.00;;;;;;;;5015810;28;46109;-75
2023/01/24 12:23:42;;;;;;;;;62.75;47.75;;;;;;;;5015597;28;45229;-75
2023/01/24 12:26:11;;;;;;;;;57.50;44.75;;;;;;;;5009606;28;45463;-75
2023/01/24 12:28:51;;;;;;;;;50.25;39.00;;;;;;;;5007692;28;45236;-76
2023/01/24 12:31:23;;;;;;;;;49.75;39.50;;;;;;;;5017422;28;46040;-76
2023/01/24 12:34:09;;;;;;;;;45.75;37.50;;;;;;;;5012691;28;46321;-75
2023/01/24 12:36:41;;;;;;;;;52.50;42.50;;;;;;;;5013792;28;45529;-76
2023/01/24 12:39:26;;;;;;;;;38.25;36.75;;;;;;;;5020346;28;45147;-76
2023/01/24 12:42:04;;;;;;;;;52.25;40.50;;;;;;;;5004584;28;45305;-76
2023/01/24 12:44:40;;;;;;;;;58.25;45.00;;;;;;;;5004179;28;45524;-76
2023/01/24 12:47:16;;;;;;;;;59.50;41.50;;;;;;;;5013236;28;45378;-75
2023/01/24 12:49:54;;;;;;;;;56.75;42.50;;;;;;;;5009333;28;46226;-75
2023/01/24 12:52:19;;;;;;;;;45.75;38.50;;;;;;;;5011068;28;45637;-75
2023/01/24 12:54:52;;;;;;;;;42.50;38.25;;;;;;;;5011064;28;45318;-75
2023/01/24 12:57:36;;;;;;;;;37.75;31.50;;;;;;;;5009245;28;45630;-75
2023/01/24 13:00:01;;;;;;;;;55.00;44.75;;;;;;;;5025369;28;47555;-75
2023/01/24 13:02:46;;;;;;;;;57.25;42.75;;;;;;;;5014453;28;46544;-76
2023/01/24 13:05:20;;;;;;;;;62.25;40.75;;;;;;;;5015234;28;45430;-75
2023/01/24 13:08:03;;;;;;;;;45.50;42.00;;;;;;;;5013742;28;45494;-76
2023/01/24 13:10:47;;;;;;;;;51.00;39.75;;;;;;;;5016420;28;45337;-76
2023/01/24 13:13:38;;;;;;;;;58.75;44.50;;;;;;;;5008923;28;45607;-76
2023/01/24 13:16:22;;;;;;;;;54.25;40.50;;;;;;;;5005655;28;45161;-75
2023/01/24 13:18:55;;;;;;;;;58.50;43.25;;;;;;;;5013754;28;45312;-76
2023/01/24 13:21:26;;;;;;;;;54.00;42.00;;;;;;;;5008757;28;45435;-76
2023/01/24 13:23:51;;;;;;;;;56.00;42.50;;;;;;;;5016484;28;47240;-76
2023/01/24 13:26:20;;;;;;;;;52.00;38.25;;;;;;;;5008844;28;45422;-76
2023/01/24 13:28:45;;;;;;;;;58.50;42.00;;;;;;;;5012477;28;45358;-75
2023/01/24 13:31:10;;;;;;;;;58.75;43.75;;;;;;;;5000289;28;45489;-75
2023/01/24 13:34:05;;;;;;;;;56.50;44.00;;;;;;;;5002971;28;46544;-75
2023/01/24 13:36:32;;;;;;;;;45.00;33.00;;;;;;;;4998044;28;45522;-75
2023/01/24 13:38:59;;;;;;;;;50.00;37.75;;;;;;;;5003860;28;45420;-75
2023/01/24 13:41:24;;;;;;;;;50.50;33.50;;;;;;;;5012874;28;45316;-75
2023/01/24 13:43:57;;;;;;;;;52.25;39.00;;;;;;;;5003261;28;45495;-75
2023/01/24 13:46:41;;;;;;;;;54.00;41.75;;;;;;;;5014399;28;45336;-75
2023/01/24 13:49:26;;;;;;;;;52.75;39.75;;;;;;;;5008714;28;45346;-75
2023/01/24 13:51:52;;;;;;;;;60.50;44.75;;;;;;;;5010407;28;45603;-75
2023/01/24 13:54:20;;;;;;;;;53.00;41.50;;;;;;;;5007559;28;45964;-76
2023/01/24 13:57:07;;;;;;;;;48.25;39.25;;;;;;;;4996752;28;45458;-73
2023/01/24 13:59:36;;;;;;;;;54.00;39.25;;;;;;;;5010520;28;45219;-74
2023/01/24 14:02:02;;;;;;;;;47.50;39.75;;;;;;;;5013514;28;45496;-74
2023/01/24 14:04:42;;;;;;;;;52.50;41.50;;;;;;;;5010665;28;46675;-74
2023/01/24 14:07:26;;;;;;;;;39.00;30.25;;;;;;;;5010382;28;45818;-75
2023/01/24 14:10:02;;;;;;;;;49.25;39.75;;;;;;;;5019314;28;45381;-74
2023/01/24 14:12:28;;;;;;;;;52.00;40.00;;;;;;;;5009314;28;45636;-74
2023/01/24 14:15:01;;;;;;;;;44.75;38.50;;;;;;;;5002791;28;45717;-74
2023/01/24 14:17:48;;;;;;;;;49.75;42.00;;;;;;;;4999824;28;45391;-74
2023/01/24 14:20:22;;;;;;;;;46.75;39.25;;;;;;;;5017417;28;45328;-75
2023/01/24 14:22:50;;;;;;;;;51.00;38.50;;;;;;;;5012528;28;46356;-74
2023/01/24 14:25:27;;;;;;;;;45.75;38.00;;;;;;;;5014447;28;48134;-74
2023/01/24 14:28:00;;;;;;;;;57.50;45.50;;;;;;;;5007115;28;45522;-75
2023/01/24 14:30:44;;;;;;;;;58.50;42.25;;;;;;;;5017778;28;45404;-75
2023/01/24 14:33:21;;;;;;;;;52.00;39.75;;;;;;;;5003864;28;45687;-74
2023/01/24 14:35:58;;;;;;;;;53.75;37.25;;;;;;;;5018005;28;45356;-75
2023/01/24 14:38:23;;;;;;;;;54.50;41.00;;;;;;;;5007760;28;45398;-74
2023/01/24 14:40:50;;;;;;;;;45.25;37.75;;;;;;;;5017439;28;45317;-74
2023/01/24 14:43:15;;;;;;;;;54.25;40.25;;;;;;;;5004927;28;45603;-75
2023/01/24 14:45:42;;;;;;;;;53.25;40.75;;;;;;;;5008314;28;47832;-75
2023/01/24 14:48:09;;;;;;;;;53.50;41.75;;;;;;;;5003376;28;45234;-74
2023/01/24 14:50:36;;;;;;;;;51.75;41.25;;;;;;;;5017133;28;45639;-74
2023/01/24 14:53:02;;;;;;;;;49.50;40.00;;;;;;;;5013665;28;45081;-75
2023/01/24 14:55:42;;;;;;;;;51.25;39.00;;;;;;;;5017283;28;46285;-75
2023/01/24 14:58:19;;;;;;;;;56.00;41.00;;;;;;;;5009666;28;45315;-75
2023/01/24 15:00:44;;;;;;;;;54.25;42.75;;;;;;;;5022393;28;45387;-74